createdAt,value
2023-05-17T00:02:20.034Z,4.32
2023-05-17T00:04:48.016Z,4.95
2023-05-17T00:07:16.055Z,4.80
2023-05-17T00:09:43.577Z,4.57
2023-05-17T00:12:11.462Z,5.13
2023-05-17T00:14:39.021Z,4.80
2023-05-17T00:17:06.623Z,4.80
2023-05-17T00:19:34.537Z,4.68
2023-05-17T00:22:02.256Z,4.80
2023-05-17T00:24:29.860Z,4.90
2023-05-17T00:26:57.681Z,4.22
2023-05-17T00:29:25.216Z,4.40
2023-05-17T00:31:53.032Z,4.70
2023-05-17T00:34:20.877Z,4.90
2023-05-17T00:36:48.390Z,4.40
2023-05-17T00:39:15.946Z,4.22
2023-05-17T00:41:43.963Z,3.70
2023-05-17T00:44:11.978Z,4.12
2023-05-17T00:46:39.576Z,4.75
2023-05-17T00:49:07.541Z,4.70
2023-05-17T00:51:35.984Z,4.78
2023-05-17T00:54:05.328Z,3.90
2023-05-17T00:56:33.358Z,4.25
2023-05-17T00:59:05.239Z,4.80
2023-05-17T01:01:35.740Z,4.40
2023-05-17T01:04:03.443Z,4.57
2023-05-17T01:06:31.282Z,5.32
2023-05-17T01:08:59.282Z,5.18
2023-05-17T01:11:52.376Z,5.28
2023-05-17T01:14:48.180Z,4.73
2023-05-17T01:17:32.025Z,5.05
2023-05-17T01:20:17.944Z,4.95
2023-05-17T01:23:00.467Z,5.07
2023-05-17T01:25:53.084Z,4.90
2023-05-17T01:28:23.159Z,5.13
2023-05-17T01:30:52.383Z,5.03
2023-05-17T01:33:21.651Z,4.85
2023-05-17T01:35:49.252Z,4.35
2023-05-17T01:38:17.110Z,5.03
2023-05-17T01:41:06.926Z,4.30
2023-05-17T01:44:12.996Z,4.05
2023-05-17T01:46:42.769Z,4.22
2023-05-17T01:49:35.311Z,4.53
2023-05-17T01:52:09.112Z,3.83
2023-05-17T01:54:47.307Z,3.93
2023-05-17T01:57:16.712Z,3.62
2023-05-17T01:59:45.858Z,3.65
2023-05-17T02:02:14.098Z,3.40
2023-05-17T02:04:42.056Z,3.05
2023-05-17T02:07:10.166Z,3.10
2023-05-17T02:09:37.724Z,2.70
2023-05-17T02:12:06.125Z,2.80
2023-05-17T02:14:34.873Z,2.72
2023-05-17T02:17:02.505Z,3.58
2023-05-17T02:19:30.131Z,2.83
2023-05-17T02:21:58.079Z,2.70
2023-05-17T02:24:25.744Z,3.17
2023-05-17T02:26:53.253Z,3.25
2023-05-17T02:29:21.160Z,3.30
2023-05-17T02:31:48.802Z,3.20
2023-05-17T02:34:18.206Z,3.53
2023-05-17T02:36:46.160Z,3.17
2023-05-17T02:39:13.729Z,3.58
2023-05-17T02:41:41.340Z,4.55
2023-05-17T02:44:09.421Z,3.40
2023-05-17T02:46:38.562Z,3.12
2023-05-17T02:49:06.261Z,3.95
2023-05-17T02:51:34.158Z,3.97
2023-05-17T02:54:02.004Z,3.75
2023-05-17T02:56:29.733Z,3.57
2023-05-17T02:58:57.794Z,2.90
2023-05-17T03:01:25.622Z,3.90
2023-05-17T03:03:54.104Z,3.35
2023-05-17T03:06:22.228Z,4.00
2023-05-17T03:08:50.537Z,3.23
2023-05-17T03:11:18.079Z,3.30
2023-05-17T03:13:46.552Z,3.35
2023-05-17T03:16:14.316Z,3.22
2023-05-17T03:18:42.097Z,2.80
2023-05-17T03:21:10.059Z,3.30
2023-05-17T03:23:37.715Z,3.55
2023-05-17T03:26:05.399Z,3.08
2023-05-17T03:28:34.166Z,2.87
2023-05-17T03:31:01.963Z,2.70
2023-05-17T03:33:30.117Z,2.27
2023-05-17T03:35:58.337Z,2.35
2023-05-17T03:38:26.290Z,2.22
2023-05-17T03:40:54.511Z,1.95
2023-05-17T03:43:22.764Z,1.65
2023-05-17T03:45:50.880Z,2.00
2023-05-17T03:48:18.678Z,2.30
2023-05-17T03:50:46.615Z,2.45
2023-05-17T03:53:14.338Z,2.67
2023-05-17T03:55:42.557Z,2.58
2023-05-17T03:58:10.655Z,2.00
2023-05-17T04:00:38.299Z,2.83
2023-05-17T04:03:07.232Z,2.90
2023-05-17T04:05:34.862Z,2.80
2023-05-17T04:08:02.598Z,3.50
2023-05-17T04:10:30.975Z,3.47
2023-05-17T04:12:58.547Z,3.28
2023-05-17T04:15:26.468Z,3.42
2023-05-17T04:17:55.081Z,2.75
2023-05-17T04:20:22.848Z,3.45
2023-05-17T04:22:50.537Z,2.87
2023-05-17T04:25:18.976Z,2.75
2023-05-17T04:27:47.522Z,3.10
2023-05-17T04:30:15.303Z,3.10
2023-05-17T04:32:43.510Z,3.37
2023-05-17T04:35:11.207Z,3.17
2023-05-17T04:37:40.399Z,2.95
2023-05-17T04:40:09.956Z,3.12
2023-05-17T04:42:37.501Z,3.20
2023-05-17T04:45:05.886Z,3.00
2023-05-17T04:47:34.123Z,3.30
2023-05-17T04:50:01.818Z,3.30
2023-05-17T04:52:29.448Z,2.92
2023-05-17T04:54:57.497Z,3.03
2023-05-17T04:57:25.106Z,3.05
2023-05-17T04:59:53.284Z,3.37
2023-05-17T05:02:21.684Z,3.20
2023-05-17T05:04:49.469Z,2.97
2023-05-17T05:07:17.153Z,3.20
2023-05-17T05:09:45.381Z,3.28
2023-05-17T05:12:13.738Z,2.60
2023-05-17T05:14:42.334Z,3.10
2023-05-17T05:17:10.498Z,3.05
2023-05-17T05:19:38.779Z,3.10
2023-05-17T05:22:08.911Z,3.05
2023-05-17T05:24:37.016Z,2.90
2023-05-17T05:27:06.973Z,3.00
2023-05-17T05:29:36.234Z,3.67
2023-05-17T05:32:04.445Z,3.50
2023-05-17T05:34:32.502Z,3.40
2023-05-17T05:37:00.472Z,3.53
2023-05-17T05:39:28.337Z,3.53
2023-05-17T05:41:55.980Z,3.33
2023-05-17T05:44:25.805Z,3.80
2023-05-17T05:46:55.658Z,3.70
2023-05-17T05:49:23.381Z,3.93
2023-05-17T05:51:50.945Z,3.55
2023-05-17T05:54:19.260Z,3.97
2023-05-17T05:56:47.366Z,3.78
2023-05-17T05:59:15.894Z,4.30
2023-05-17T06:01:43.937Z,4.07
2023-05-17T06:04:11.803Z,3.90
2023-05-17T06:06:39.633Z,3.85
2023-05-17T06:09:07.531Z,3.80
2023-05-17T06:11:35.511Z,4.07
2023-05-17T06:14:03.119Z,4.17
2023-05-17T06:16:30.748Z,3.33
2023-05-17T06:18:58.783Z,3.55
2023-05-17T06:21:26.370Z,4.10
2023-05-17T06:23:53.896Z,3.50
2023-05-17T06:26:21.837Z,3.77
2023-05-17T06:28:49.425Z,3.60
2023-05-17T06:31:17.764Z,3.33
2023-05-17T06:33:47.117Z,3.00
2023-05-17T06:36:14.698Z,3.20
2023-05-17T06:38:42.304Z,4.07
2023-05-17T06:41:10.235Z,3.25
2023-05-17T06:43:37.993Z,2.87
2023-05-17T06:46:05.738Z,3.87
2023-05-17T06:48:33.800Z,3.37
2023-05-17T06:51:01.540Z,3.40
2023-05-17T06:53:29.117Z,3.72
2023-05-17T06:55:56.986Z,3.00
2023-05-17T06:58:24.511Z,3.35
2023-05-17T07:00:52.065Z,3.53
2023-05-17T07:03:20.733Z,2.83
2023-05-17T07:05:48.357Z,2.90
2023-05-17T07:08:16.080Z,3.58
2023-05-17T07:10:44.315Z,3.08
2023-05-17T07:13:11.886Z,3.20
2023-05-17T07:15:39.506Z,2.97
2023-05-17T07:18:07.377Z,2.70
2023-05-17T07:20:35.021Z,2.70
2023-05-17T07:23:02.596Z,2.70
2023-05-17T07:25:34.009Z,2.47
2023-05-17T07:28:01.536Z,3.07
2023-05-17T07:30:29.120Z,2.40
2023-05-17T07:32:57.165Z,2.97
2023-05-17T07:35:24.769Z,2.60
2023-05-17T07:37:52.420Z,2.78
2023-05-17T07:40:20.348Z,2.60
2023-05-17T07:42:48.000Z,2.75
2023-05-17T07:45:15.788Z,2.80
2023-05-17T07:47:43.718Z,2.62
2023-05-17T07:50:12.099Z,3.80
2023-05-17T07:52:39.906Z,2.57
2023-05-17T07:55:08.182Z,3.30
2023-05-17T07:57:35.903Z,3.10
2023-05-17T08:00:04.439Z,3.12
2023-05-17T08:02:39.764Z,2.72
2023-05-17T08:05:08.687Z,2.97
2023-05-17T08:07:36.277Z,2.75
2023-05-17T08:10:04.312Z,2.10
2023-05-17T08:12:32.162Z,2.10
2023-05-17T08:15:00.015Z,2.50
2023-05-17T08:17:27.582Z,1.93
2023-05-17T08:19:55.579Z,1.95
2023-05-17T08:22:23.158Z,2.22
2023-05-17T08:24:51.455Z,2.08
2023-05-17T08:27:19.321Z,2.25
2023-05-17T08:29:46.989Z,2.00
2023-05-17T08:32:14.489Z,1.67
2023-05-17T08:34:42.455Z,1.60
2023-05-17T08:37:10.138Z,1.67
2023-05-17T08:39:37.835Z,1.52
2023-05-17T08:42:08.857Z,1.53
2023-05-17T08:44:36.590Z,1.23
2023-05-17T08:47:04.516Z,1.33
2023-05-17T08:49:34.616Z,1.55
2023-05-17T08:52:03.477Z,1.50
2023-05-17T08:54:31.074Z,1.30
2023-05-17T08:57:02.214Z,0.90
2023-05-17T08:59:34.042Z,1.08
2023-05-17T09:02:02.226Z,0.90
2023-05-17T09:04:31.415Z,1.08
2023-05-17T09:06:59.030Z,0.90
2023-05-17T09:09:27.482Z,0.77
2023-05-17T09:11:55.352Z,0.70
2023-05-17T09:14:22.892Z,0.60
2023-05-17T09:16:58.209Z,1.10
2023-05-17T09:19:25.919Z,1.00
2023-05-17T09:21:59.861Z,1.20
2023-05-17T09:24:31.635Z,1.30
2023-05-17T09:27:03.795Z,1.02
2023-05-17T09:29:32.724Z,1.30
2023-05-17T09:32:17.336Z,1.00
2023-05-17T09:34:46.097Z,1.30
2023-05-17T09:37:18.754Z,1.30
2023-05-17T09:39:48.203Z,1.10
2023-05-17T09:42:17.173Z,1.20
2023-05-17T09:44:57.476Z,1.10
2023-05-17T09:47:30.304Z,1.23
2023-05-17T09:50:00.746Z,1.30
2023-05-17T09:52:32.233Z,0.93
2023-05-17T09:55:01.101Z,1.10
2023-05-17T09:57:37.077Z,1.30
2023-05-17T10:00:10.983Z,1.25
2023-05-17T10:02:42.949Z,1.37
2023-05-17T10:05:15.387Z,1.00
2023-05-17T10:07:45.176Z,1.33
2023-05-17T10:10:14.234Z,1.30
2023-05-17T10:12:41.914Z,1.40
2023-05-17T10:15:11.407Z,1.33
2023-05-17T10:17:43.933Z,1.10
2023-05-17T10:20:15.727Z,1.20
2023-05-17T10:22:43.689Z,1.40
2023-05-17T10:25:11.920Z,1.10
2023-05-17T10:27:39.852Z,1.40
2023-05-17T10:30:09.136Z,1.60
2023-05-17T10:32:36.831Z,1.55
2023-05-17T10:35:11.744Z,1.27
2023-05-17T10:37:40.804Z,0.90
2023-05-17T10:40:14.083Z,1.30
2023-05-17T10:42:46.653Z,1.40
2023-05-17T10:45:14.922Z,1.45
2023-05-17T10:47:43.619Z,1.77
2023-05-17T10:50:15.718Z,1.50
2023-05-17T10:52:48.526Z,1.60
2023-05-17T10:55:37.000Z,1.37
2023-05-17T10:58:10.960Z,1.50
2023-05-17T11:00:41.746Z,1.50
2023-05-17T11:03:14.036Z,1.50
2023-05-17T11:05:44.774Z,1.60
2023-05-17T11:08:15.921Z,2.10
2023-05-17T11:11:10.626Z,1.87
2023-05-17T11:13:52.779Z,1.47
2023-05-17T11:16:28.047Z,1.50
2023-05-17T11:19:07.126Z,2.20
2023-05-17T11:21:35.984Z,1.83
2023-05-17T11:24:04.467Z,1.95
2023-05-17T11:26:38.111Z,1.80
2023-05-17T11:29:13.394Z,1.98
2023-05-17T11:31:45.389Z,1.45
2023-05-17T11:34:13.459Z,1.70
2023-05-17T11:36:55.151Z,1.98
2023-05-17T11:39:25.419Z,1.80
2023-05-17T11:41:54.856Z,1.50
2023-05-17T11:44:25.409Z,1.92
2023-05-17T11:47:02.613Z,1.85
2023-05-17T11:49:36.292Z,1.73
2023-05-17T11:52:08.505Z,1.50
2023-05-17T11:54:40.418Z,1.50
2023-05-17T11:57:09.500Z,1.52
2023-05-17T11:59:40.344Z,1.50
2023-05-17T12:02:08.305Z,1.95
2023-05-17T12:04:38.265Z,1.70
2023-05-17T12:07:10.620Z,2.00
2023-05-17T12:09:39.338Z,1.45
2023-05-17T12:12:07.245Z,1.50
2023-05-17T12:14:34.913Z,1.37
2023-05-17T12:17:05.866Z,1.13
2023-05-17T12:19:33.881Z,1.40
2023-05-17T12:22:15.197Z,1.50
2023-05-17T12:24:43.672Z,1.37
2023-05-17T12:27:11.532Z,1.20
2023-05-17T12:29:40.121Z,1.50
2023-05-17T12:32:10.561Z,1.65
2023-05-17T12:34:38.787Z,1.45
2023-05-17T12:37:10.648Z,1.65
2023-05-17T12:39:39.882Z,1.30
2023-05-17T12:42:08.702Z,1.20
2023-05-17T12:44:36.265Z,1.40
2023-05-17T12:47:04.250Z,1.30
2023-05-17T12:49:38.127Z,1.17
2023-05-17T12:52:06.451Z,1.55
2023-05-17T12:54:34.459Z,1.20
2023-05-17T12:57:14.925Z,1.15
2023-05-17T12:59:50.142Z,1.10
2023-05-17T13:02:20.111Z,1.08
2023-05-17T13:04:48.236Z,1.10
2023-05-17T13:07:25.339Z,1.20
2023-05-17T13:09:53.257Z,1.17
2023-05-17T13:12:23.768Z,1.10
2023-05-17T13:14:53.730Z,1.25
2023-05-17T13:17:27.364Z,1.23
2023-05-17T13:19:57.783Z,1.07
2023-05-17T13:22:26.363Z,0.80
2023-05-17T13:24:54.716Z,1.00
2023-05-17T13:27:22.355Z,1.27
2023-05-17T13:29:50.191Z,1.42
2023-05-17T13:32:17.798Z,1.13
2023-05-17T13:34:45.468Z,1.10
2023-05-17T13:37:13.385Z,0.88
2023-05-17T13:39:41.658Z,1.45
2023-05-17T13:42:11.249Z,1.12
2023-05-17T13:44:39.707Z,1.27
2023-05-17T13:47:07.571Z,1.25
2023-05-17T13:49:35.311Z,1.05
2023-05-17T13:52:09.515Z,0.88
2023-05-17T13:54:37.989Z,0.88
2023-05-17T13:57:07.348Z,1.43
2023-05-17T13:59:34.936Z,1.10
2023-05-17T14:02:02.602Z,1.00
2023-05-17T14:04:30.480Z,1.17
2023-05-17T14:06:58.346Z,1.30
2023-05-17T14:09:25.913Z,1.00
2023-05-17T14:11:54.106Z,1.02
2023-05-17T14:14:21.687Z,1.10
2023-05-17T14:16:49.277Z,1.20
2023-05-17T14:19:17.319Z,1.00
2023-05-17T14:21:45.029Z,0.60
2023-05-17T14:24:12.951Z,1.00
2023-05-17T14:26:40.860Z,0.85
2023-05-17T14:29:08.425Z,0.68
2023-05-17T14:31:36.045Z,0.90
2023-05-17T14:34:04.045Z,0.90
2023-05-17T14:36:34.049Z,0.85
2023-05-17T14:39:01.794Z,1.37
2023-05-17T14:41:29.697Z,0.70
2023-05-17T14:43:57.252Z,0.85
2023-05-17T14:46:25.008Z,0.70
2023-05-17T14:48:52.884Z,0.90
2023-05-17T14:51:20.528Z,1.05
2023-05-17T14:53:48.122Z,0.95
2023-05-17T14:56:16.849Z,0.75
2023-05-17T14:58:44.412Z,0.83
2023-05-17T15:01:12.234Z,0.70
2023-05-17T15:03:40.180Z,0.98
2023-05-17T15:06:10.263Z,0.57
2023-05-17T15:08:39.894Z,0.95
2023-05-17T15:11:07.525Z,1.10
2023-05-17T15:13:35.104Z,0.70
2023-05-17T15:16:03.469Z,0.80
2023-05-17T15:18:31.506Z,0.50
2023-05-17T15:20:59.054Z,0.80
2023-05-17T15:23:27.049Z,0.60
2023-05-17T15:25:54.633Z,0.80
2023-05-17T15:28:23.879Z,0.88
2023-05-17T15:31:03.407Z,0.55
2023-05-17T15:33:32.255Z,0.98
2023-05-17T15:36:00.212Z,0.80
2023-05-17T15:38:27.894Z,0.70
2023-05-17T15:41:05.032Z,0.90
2023-05-17T15:43:34.703Z,0.70
2023-05-17T15:46:02.290Z,1.00
2023-05-17T15:48:30.004Z,0.90
2023-05-17T15:50:58.667Z,0.80
2023-05-17T15:53:27.953Z,0.95
2023-05-17T15:55:55.727Z,0.82
2023-05-17T15:58:27.573Z,0.85
2023-05-17T16:00:55.576Z,0.90
2023-05-17T16:03:23.469Z,0.82
2023-05-17T16:05:51.655Z,0.95
2023-05-17T16:08:20.466Z,0.90
2023-05-17T16:10:48.385Z,0.90
2023-05-17T16:13:16.775Z,1.13
2023-05-17T16:15:44.473Z,0.70
2023-05-17T16:18:15.013Z,1.12
2023-05-17T16:20:43.285Z,0.88
2023-05-17T16:23:10.988Z,0.70
2023-05-17T16:25:38.868Z,0.70
2023-05-17T16:28:06.749Z,0.95
2023-05-17T16:30:34.310Z,1.00
2023-05-17T16:33:02.761Z,0.82
2023-05-17T16:35:30.427Z,0.93
2023-05-17T16:37:58.149Z,0.90
2023-05-17T16:40:28.841Z,0.80
2023-05-17T16:42:56.710Z,1.10
2023-05-17T16:45:24.359Z,0.60
2023-05-17T16:47:52.260Z,0.85
2023-05-17T16:50:20.804Z,0.80
2023-05-17T16:52:48.406Z,0.77
2023-05-17T16:55:16.468Z,0.80
2023-05-17T16:57:44.186Z,0.70
2023-05-17T17:00:12.241Z,0.77
2023-05-17T17:02:40.101Z,0.60
2023-05-17T17:05:08.145Z,0.65
2023-05-17T17:07:35.722Z,0.88
2023-05-17T17:10:03.805Z,1.17
2023-05-17T17:12:31.606Z,0.95
2023-05-17T17:14:59.227Z,0.63
2023-05-17T17:17:27.183Z,2.62
2023-05-17T17:19:54.765Z,2.03
2023-05-17T17:22:22.539Z,1.20
2023-05-17T17:24:50.487Z,0.80
2023-05-17T17:27:18.065Z,1.00
2023-05-17T17:29:45.629Z,1.12
2023-05-17T17:32:13.598Z,0.93
2023-05-17T17:34:41.158Z,1.05
2023-05-17T17:37:08.711Z,1.10
2023-05-17T17:39:36.577Z,0.80
2023-05-17T17:42:04.377Z,0.88
2023-05-17T17:44:31.995Z,0.80
2023-05-17T17:46:59.889Z,0.73
2023-05-17T17:49:27.518Z,1.10
2023-05-17T17:51:55.165Z,0.70
2023-05-17T17:54:23.021Z,0.80
2023-05-17T17:56:50.587Z,0.90
2023-05-17T17:59:18.195Z,0.40
2023-05-17T18:01:46.207Z,0.55
2023-05-17T18:04:16.259Z,0.50
2023-05-17T18:06:45.872Z,0.68
2023-05-17T18:09:13.844Z,0.70
2023-05-17T18:11:41.510Z,1.30
2023-05-17T18:14:09.193Z,1.15
2023-05-17T18:16:37.786Z,0.60
2023-05-17T18:19:05.454Z,0.90
2023-05-17T18:21:33.395Z,0.70
2023-05-17T18:24:01.223Z,0.90
2023-05-17T18:26:28.782Z,0.60
2023-05-17T18:28:56.389Z,0.90
2023-05-17T18:31:24.280Z,1.00
2023-05-17T18:33:52.176Z,0.80
2023-05-17T18:36:21.220Z,0.90
2023-05-17T18:38:50.150Z,1.23
2023-05-17T18:41:17.901Z,0.50
2023-05-17T18:43:45.554Z,0.80
2023-05-17T18:46:13.475Z,0.82
2023-05-17T18:48:41.593Z,0.70
2023-05-17T18:51:09.213Z,0.75
2023-05-17T18:53:37.092Z,0.70
2023-05-17T18:56:04.946Z,0.52
2023-05-17T18:58:32.473Z,0.70
2023-05-17T19:01:01.587Z,0.73
2023-05-17T19:03:29.209Z,0.90
2023-05-17T19:05:56.773Z,0.53
2023-05-17T19:08:24.725Z,0.52
2023-05-17T19:10:52.291Z,0.75
2023-05-17T19:13:19.823Z,0.70
2023-05-17T19:15:48.496Z,0.60
2023-05-17T19:18:16.103Z,0.70
2023-05-17T19:20:43.809Z,0.70
2023-05-17T19:23:11.745Z,0.85
2023-05-17T19:25:39.288Z,1.10
2023-05-17T19:28:06.854Z,0.90
2023-05-17T19:30:35.031Z,0.90
2023-05-17T19:33:02.817Z,0.77
2023-05-17T19:35:30.499Z,1.17
2023-05-17T19:37:58.382Z,1.00
2023-05-17T19:40:25.979Z,1.00
2023-05-17T19:42:53.526Z,1.23
2023-05-17T19:45:21.418Z,1.05
2023-05-17T19:47:49.257Z,1.02
2023-05-17T19:50:16.978Z,0.70
2023-05-17T19:52:44.910Z,1.27
2023-05-17T19:55:21.945Z,0.80
2023-05-17T19:57:49.909Z,0.88
2023-05-17T20:00:18.301Z,1.00
2023-05-17T20:02:49.281Z,1.00
2023-05-17T20:05:17.403Z,1.40
2023-05-17T20:07:45.842Z,0.90
2023-05-17T20:10:13.731Z,0.95
2023-05-17T20:12:41.994Z,1.23
2023-05-17T20:15:10.262Z,0.80
2023-05-17T20:17:38.242Z,0.90
2023-05-17T20:20:06.648Z,1.20
2023-05-17T20:22:35.099Z,0.82
2023-05-17T20:25:03.118Z,1.23
2023-05-17T20:27:30.925Z,1.00
2023-05-17T20:29:58.436Z,1.52
2023-05-17T20:32:26.311Z,0.90
2023-05-17T20:34:53.934Z,1.40
2023-05-17T20:37:21.517Z,0.73
2023-05-17T20:39:49.487Z,0.82
2023-05-17T20:42:18.277Z,1.00
2023-05-17T20:44:48.169Z,1.10
2023-05-17T20:47:16.045Z,1.10
2023-05-17T20:49:43.600Z,1.20
2023-05-17T20:52:11.281Z,0.77
2023-05-17T20:54:39.153Z,1.08
2023-05-17T20:57:07.021Z,0.90
2023-05-17T20:59:34.587Z,1.00
2023-05-17T21:02:04.004Z,0.98
2023-05-17T21:04:31.769Z,0.90
2023-05-17T21:06:59.350Z,0.75
2023-05-17T21:09:27.215Z,1.13
2023-05-17T21:11:54.918Z,0.80
2023-05-17T21:14:22.480Z,1.15
2023-05-17T21:16:50.356Z,1.00
2023-05-17T21:19:17.996Z,1.00
2023-05-17T21:21:45.750Z,0.80
2023-05-17T21:24:13.922Z,0.95
2023-05-17T21:26:41.501Z,0.77
2023-05-17T21:29:09.067Z,1.30
2023-05-17T21:31:37.267Z,1.05
2023-05-17T21:34:04.889Z,1.10
2023-05-17T21:36:32.517Z,0.77
2023-05-17T21:39:00.376Z,1.40
2023-05-17T21:41:27.939Z,0.98
2023-05-17T21:43:55.836Z,1.33
2023-05-17T21:46:24.191Z,0.87
2023-05-17T21:48:52.307Z,1.12
2023-05-17T21:51:19.867Z,1.20
2023-05-17T21:53:50.315Z,1.10
2023-05-17T21:56:17.913Z,1.37
2023-05-17T21:58:45.470Z,1.23
2023-05-17T22:01:13.639Z,1.35
2023-05-17T22:03:41.726Z,1.25
2023-05-17T22:06:09.412Z,1.00
2023-05-17T22:08:36.964Z,1.40
2023-05-17T22:11:05.718Z,1.10
2023-05-17T22:13:33.330Z,1.42
2023-05-17T22:16:02.063Z,1.40
2023-05-17T22:18:32.049Z,1.58
2023-05-17T22:20:59.816Z,1.20
2023-05-17T22:23:27.882Z,1.60
2023-05-17T22:25:57.221Z,1.48
2023-05-17T22:28:24.895Z,2.12
2023-05-17T22:30:54.200Z,1.73
2023-05-17T22:33:22.407Z,1.23
2023-05-17T22:35:53.658Z,1.63
2023-05-17T22:38:25.739Z,1.67
2023-05-17T22:40:53.319Z,1.58
2023-05-17T22:43:26.009Z,1.77
2023-05-17T22:45:53.949Z,1.85
2023-05-17T22:48:21.462Z,1.67
2023-05-17T22:50:49.118Z,1.27
2023-05-17T22:53:18.584Z,2.40
2023-05-17T22:55:49.075Z,1.73
2023-05-17T22:58:17.374Z,2.42
2023-05-17T23:00:45.633Z,1.90
2023-05-17T23:03:13.449Z,2.00
2023-05-17T23:05:41.558Z,2.30
2023-05-17T23:08:09.986Z,1.83
2023-05-17T23:10:37.961Z,1.67
2023-05-17T23:13:05.878Z,2.10
2023-05-17T23:15:34.353Z,2.37
2023-05-17T23:18:01.986Z,2.15
2023-05-17T23:20:29.868Z,2.22
2023-05-17T23:22:59.645Z,2.25
2023-05-17T23:25:28.939Z,2.27
2023-05-17T23:28:00.183Z,2.05
2023-05-17T23:30:27.981Z,2.00
2023-05-17T23:32:55.643Z,2.00
2023-05-17T23:35:24.076Z,2.20
2023-05-17T23:37:51.665Z,2.27
2023-05-17T23:40:19.431Z,1.87
2023-05-17T23:42:47.354Z,1.95
2023-05-17T23:45:15.083Z,2.28
2023-05-17T23:47:42.696Z,1.87
2023-05-17T23:50:11.053Z,1.87
2023-05-17T23:52:39.760Z,2.28
2023-05-17T23:55:07.860Z,1.98
2023-05-17T23:57:35.930Z,1.92
